Time;durP1;ratioP1;P1;durP2;ratioP2;P2;SDS_P1;SDS_P2;PMS_P1;PMS_P2;Temp;Humidity;BMP_temperature;BMP_pressure;BME280_temperature;BME280_humidity;BME280_pressure;Samples;Min_cycle;Max_cycle;Signal;HPM_P1;HPM_P2
2022/03/13 00:02:23;;;;;;;23.67;16.73;;;3.50;67.40;;;;;;5069625;28;20199;-85
2022/03/13 00:04:51;;;;;;;28.10;18.23;;;4.00;76.70;;;;;;5070097;28;20215;-84
2022/03/13 00:07:19;;;;;;;25.30;16.40;;;3.30;75.30;;;;;;5069339;28;20199;-83
2022/03/13 00:09:48;;;;;;;25.80;16.58;;;3.30;70.00;;;;;;5070198;28;20199;-83
2022/03/13 00:12:26;;;;;;;33.92;15.82;;;3.70;75.80;;;;;;5062910;28;20231;-84
2022/03/13 00:14:56;;;;;;;25.48;18.17;;;3.20;77.20;;;;;;5069659;28;20245;-83
2022/03/13 00:17:25;;;;;;;25.15;16.17;;;3.10;77.00;;;;;;5054021;28;20270;-84
2022/03/13 00:19:52;;;;;;;18.95;15.23;;;3.10;57.90;;;;;;5070146;28;20214;-82
2022/03/13 00:22:19;;;;;;;26.92;17.30;;;3.10;70.90;;;;;;5070763;28;20223;-84
2022/03/13 00:24:46;;;;;;;27.95;17.70;;;3.00;76.00;;;;;;5070634;28;20221;-84
2022/03/13 00:27:13;;;;;;;26.90;15.77;;;3.00;69.00;;;;;;5070401;28;20203;-82
2022/03/13 00:29:41;;;;;;;26.95;17.05;;;3.20;78.60;;;;;;5050849;28;20231;-83
2022/03/13 00:32:09;;;;;;;23.75;17.58;;;3.20;57.30;;;;;;5067094;28;20199;-84
2022/03/13 00:34:36;;;;;;;21.95;16.00;;;3.10;77.90;;;;;;5069633;28;20547;-84
2022/03/13 00:37:03;;;;;;;23.63;16.80;;;3.10;73.20;;;;;;5068692;28;20215;-82
2022/03/13 00:39:30;;;;;;;23.02;16.63;;;3.20;76.60;;;;;;5069905;28;20237;-84
2022/03/13 00:41:57;;;;;;;23.13;15.60;;;3.10;57.00;;;;;;5065708;28;20195;-83
2022/03/13 00:44:24;;;;;;;28.48;17.45;;;3.00;77.50;;;;;;5069668;28;20581;-84
2022/03/13 00:46:52;;;;;;;26.42;15.98;;;2.80;69.40;;;;;;5069043;28;20238;-82
2022/03/13 00:49:20;;;;;;;22.73;15.32;;;3.00;57.70;;;;;;5070385;28;20322;-83
2022/03/13 00:51:47;;;;;;;30.15;18.63;;;3.20;72.80;;;;;;5068718;28;20203;-84
2022/03/13 00:54:14;;;;;;;24.65;17.27;;;3.90;57.90;;;;;;5064753;28;20251;-84
2022/03/13 00:56:41;;;;;;;26.05;17.52;;;3.20;58.00;;;;;;5069218;28;20306;-83
2022/03/13 00:59:08;;;;;;;29.90;18.25;;;3.20;77.60;;;;;;5069080;28;20248;-84
2022/03/13 01:01:34;;;;;;;27.15;17.77;;;3.10;67.80;;;;;;5069545;28;20282;-82
2022/03/13 01:04:03;;;;;;;25.77;16.85;;;3.50;57.30;;;;;;5069081;28;20207;-83
2022/03/13 01:06:30;;;;;;;21.67;16.45;;;3.10;77.10;;;;;;5064500;28;20211;-82
2022/03/13 01:08:57;;;;;;;22.88;16.85;;;3.80;77.80;;;;;;5067898;28;20608;-82
2022/03/13 01:11:25;;;;;;;26.63;15.77;;;4.00;70.90;;;;;;5068451;28;20203;-82
2022/03/13 01:13:54;;;;;;;22.98;16.98;;;3.10;76.70;;;;;;5070128;28;20241;-83
2022/03/13 01:16:22;;;;;;;27.85;17.02;;;3.00;68.50;;;;;;5068891;28;20191;-82
2022/03/13 01:18:52;;;;;;;24.15;15.50;;;3.20;56.70;;;;;;5069203;28;20296;-82
2022/03/13 01:21:21;;;;;;;28.83;19.30;;;3.20;56.70;;;;;;5068823;28;20577;-84
2022/03/13 01:24:26;;;;;;;25.77;17.40;;;3.20;56.00;;;;;;5070337;28;20614;-83
2022/03/13 01:26:57;;;;;;;33.35;16.73;;;3.20;56.40;;;;;;5068933;28;20659;-83
2022/03/13 01:29:25;;;;;;;25.40;16.95;;;3.10;56.50;;;;;;5069380;28;20712;-83
2022/03/13 01:31:52;;;;;;;26.45;17.23;;;3.20;72.80;;;;;;5069257;28;20669;-82
2022/03/13 01:34:41;;;;;;;27.73;16.67;;;3.10;56.60;;;;;;5070425;28;20785;-83
2022/03/13 01:37:14;;;;;;;22.35;15.07;;;3.10;56.40;;;;;;5068835;28;20200;-82
2022/03/13 01:39:42;;;;;;;24.20;15.23;;;3.10;56.30;;;;;;5068851;28;20260;-83
2022/03/13 01:42:09;;;;;;;22.90;15.20;;;3.10;55.90;;;;;;5063702;28;20412;-83
2022/03/13 01:44:36;;;;;;;19.73;14.70;;;3.10;56.10;;;;;;5068728;28;20223;-83
2022/03/13 01:47:06;;;;;;;23.80;14.98;;;3.20;75.70;;;;;;5069158;28;20278;-82
2022/03/13 01:49:33;;;;;;;17.77;13.40;;;3.50;75.10;;;;;;5069898;28;20195;-83
2022/03/13 01:52:01;;;;;;;17.75;13.32;;;3.10;74.60;;;;;;5057024;28;20658;-83
2022/03/13 01:54:31;;;;;;;18.80;12.90;;;3.00;71.30;;;;;;5064682;28;20265;-84
2022/03/13 01:57:00;;;;;;;18.10;12.88;;;2.80;65.40;;;;;;5065913;28;20239;-83
2022/03/13 01:59:29;;;;;;;15.45;12.15;;;2.90;74.40;;;;;;5065332;28;20251;-84
2022/03/13 02:01:57;;;;;;;21.20;13.57;;;2.70;73.80;;;;;;5065178;28;20491;-83
2022/03/13 02:04:27;;;;;;;19.88;14.00;;;2.90;72.20;;;;;;5052190;28;20578;-83
2022/03/13 02:06:56;;;;;;;21.45;14.70;;;2.80;73.70;;;;;;5060530;28;20219;-83
2022/03/13 02:09:24;;;;;;;18.83;13.88;;;3.00;70.10;;;;;;5069462;28;20531;-82
2022/03/13 02:11:53;;;;;;;22.55;15.55;;;2.90;55.40;;;;;;5069934;28;20196;-84
2022/03/13 02:14:24;;;;;;;23.25;16.60;;;2.90;55.50;;;;;;5070043;28;20206;-84
2022/03/13 02:16:52;;;;;;;26.05;15.52;;;2.90;74.90;;;;;;5070314;28;20308;-83
2022/03/13 02:19:21;;;;;;;26.58;17.83;;;2.90;76.10;;;;;;5070703;28;20215;-83
2022/03/13 02:21:52;;;;;;;23.02;15.85;;;2.80;76.00;;;;;;5073259;28;20238;-83
2022/03/13 02:24:24;;;;;;;25.10;16.40;;;2.80;70.00;;;;;;5073951;28;20205;-82
2022/03/13 02:27:01;;;;;;;20.63;14.70;;;2.80;75.40;;;;;;5073661;28;20306;-83
2022/03/13 02:29:29;;;;;;;24.88;17.30;;;2.70;56.10;;;;;;5074695;28;20211;-82
2022/03/13 02:31:57;;;;;;;21.45;14.98;;;3.20;56.40;;;;;;5074883;28;20219;-82
2022/03/13 02:34:25;;;;;;;23.92;15.90;;;2.70;75.20;;;;;;5074940;28;20211;-83
2022/03/13 02:37:02;;;;;;;21.02;14.32;;;2.60;74.80;;;;;;5073520;28;20229;-83
2022/03/13 02:39:36;;;;;;;24.65;15.07;;;2.60;74.90;;;;;;5074586;28;20282;-82
2022/03/13 02:42:08;;;;;;;22.60;14.80;;;2.60;57.00;;;;;;5059135;28;20258;-82
2022/03/13 02:44:37;;;;;;;18.92;13.88;;;2.70;76.80;;;;;;5073789;28;20207;-82
2022/03/13 02:47:05;;;;;;;19.95;14.98;;;2.80;56.80;;;;;;5073296;28;20271;-82
2022/03/13 02:49:33;;;;;;;22.77;15.02;;;2.40;59.60;;;;;;5074197;28;20211;-84
2022/03/13 02:52:03;;;;;;;19.58;15.00;;;2.30;76.10;;;;;;5065994;28;20227;-84
2022/03/13 02:54:32;;;;;;;26.20;15.60;;;2.80;57.00;;;;;;5069180;28;20226;-82
2022/03/13 02:56:59;;;;;;;21.33;15.57;;;2.70;77.20;;;;;;5074566;28;20274;-83
2022/03/13 02:59:26;;;;;;;26.02;17.30;;;2.60;76.60;;;;;;5068779;28;20222;-82
2022/03/13 03:01:53;;;;;;;27.08;17.15;;;2.40;75.80;;;;;;5068257;28;20578;-83
2022/03/13 03:04:24;;;;;;;23.60;15.20;;;2.30;56.60;;;;;;5072556;28;20230;-82
2022/03/13 03:07:01;;;;;;;30.23;14.20;;;2.40;56.60;;;;;;5071639;28;20285;-82
2022/03/13 03:09:30;;;;;;;24.17;14.77;;;2.50;75.50;;;;;;5072347;28;20195;-83
2022/03/13 03:12:00;;;;;;;24.98;15.95;;;2.60;76.60;;;;;;5072565;28;20681;-82
2022/03/13 03:14:28;;;;;;;21.77;14.13;;;2.20;76.60;;;;;;5072935;28;20199;-83
2022/03/13 03:16:55;;;;;;;25.40;14.55;;;2.20;73.70;;;;;;5072885;28;20202;-82
2022/03/13 03:19:22;;;;;;;21.00;15.98;;;2.60;75.60;;;;;;5072161;28;20237;-83
2022/03/13 03:21:49;;;;;;;20.50;14.77;;;2.90;75.70;;;;;;5074316;28;20203;-84
2022/03/13 03:24:20;;;;;;;22.38;14.30;;;2.70;75.20;;;;;;5069455;28;20571;-83
2022/03/13 03:26:47;;;;;;;20.60;15.27;;;2.40;56.80;;;;;;5069730;28;20491;-83
2022/03/13 03:29:15;;;;;;;22.25;15.63;;;2.40;76.70;;;;;;5073740;28;20226;-84
2022/03/13 03:31:45;;;;;;;22.80;15.52;;;2.20;68.20;;;;;;5070712;28;20231;-82
2022/03/13 03:34:14;;;;;;;24.05;14.65;;;2.20;57.20;;;;;;5071205;28;20265;-83
2022/03/13 03:36:46;;;;;;;17.95;12.73;;;2.20;57.40;;;;;;5069566;28;20215;-83
2022/03/13 03:39:14;;;;;;;17.17;12.75;;;2.10;57.50;;;;;;5070595;28;20290;-82
2022/03/13 03:41:43;;;;;;;21.55;14.25;;;2.10;57.80;;;;;;5055864;28;20698;-84
2022/03/13 03:44:11;;;;;;;20.60;12.63;;;2.10;58.00;;;;;;5070806;28;20204;-83
2022/03/13 03:46:40;;;;;;;20.77;13.63;;;2.20;57.20;;;;;;5070345;28;20216;-82
2022/03/13 03:49:07;;;;;;;24.38;15.45;;;2.30;73.50;;;;;;5070239;28;20286;-83
2022/03/13 03:51:34;;;;;;;21.85;15.35;;;2.10;75.70;;;;;;5067724;28;20290;-83
2022/03/13 03:54:01;;;;;;;23.35;15.32;;;2.30;68.80;;;;;;5064690;28;20338;-82
2022/03/13 03:56:28;;;;;;;19.08;14.15;;;2.90;58.10;;;;;;5070504;28;20218;-84
2022/03/13 03:58:55;;;;;;;23.60;13.98;;;2.20;57.70;;;;;;5071039;28;20199;-84
2022/03/13 04:01:22;;;;;;;22.15;14.07;;;2.10;70.90;;;;;;5065946;28;20264;-82
2022/03/13 04:03:51;;;;;;;23.25;15.23;;;1.90;77.00;;;;;;5070012;28;20677;-82
2022/03/13 04:06:18;;;;;;;23.85;16.95;;;2.10;79.40;;;;;;5069649;28;20230;-83
2022/03/13 04:08:45;;;;;;;21.35;16.55;;;3.50;59.00;;;;;;5070424;28;20249;-82
2022/03/13 04:11:12;;;;;;;21.92;14.40;;;2.10;78.00;;;;;;5070368;28;20205;-83
2022/03/13 04:13:39;;;;;;;18.88;14.35;;;2.10;78.20;;;;;;5070221;28;20207;-82
2022/03/13 04:16:08;;;;;;;24.90;17.38;;;2.00;78.40;;;;;;5070286;28;20255;-83
2022/03/13 04:18:36;;;;;;;25.88;15.43;;;2.00;77.80;;;;;;5070001;28;20215;-83
2022/03/13 04:21:05;;;;;;;21.40;15.13;;;2.00;79.00;;;;;;5069789;28;20207;-82
2022/03/13 04:23:33;;;;;;;23.83;15.82;;;2.00;70.90;;;;;;5070065;28;20601;-82
2022/03/13 04:26:00;;;;;;;25.45;15.13;;;1.90;78.00;;;;;;5069656;28;20225;-83
2022/03/13 04:28:27;;;;;;;24.77;16.27;;;1.80;73.40;;;;;;5069675;28;20233;-84
2022/03/13 04:30:57;;;;;;;20.30;14.90;;;1.90;58.70;;;;;;5070082;28;20235;-83
2022/03/13 04:33:25;;;;;;;18.98;13.75;;;1.70;70.90;;;;;;5070766;28;20206;-84
2022/03/13 04:35:56;;;;;;;22.65;15.30;;;2.00;80.20;;;;;;5070368;28;20206;-82
2022/03/13 04:38:26;;;;;;;22.95;14.52;;;1.90;80.10;;;;;;5069644;28;20211;-83
2022/03/13 04:40:53;;;;;;;23.83;15.55;;;1.80;74.90;;;;;;5065943;28;20203;-83
2022/03/13 04:43:20;;;;;;;21.85;15.10;;;1.90;71.10;;;;;;5068545;28;20666;-83
2022/03/13 04:45:48;;;;;;;23.65;14.50;;;;;;;;;;5070589;28;20231;-82
2022/03/13 04:48:16;;;;;;;24.35;15.45;;;1.10;79.30;;;;;;5068024;28;20690;-83
2022/03/13 04:50:43;;;;;;;21.95;14.23;;;1.80;59.10;;;;;;5065860;28;20221;-82
2022/03/13 04:53:10;;;;;;;25.08;15.10;;;1.90;80.80;;;;;;5057838;28;20231;-82
2022/03/13 04:55:38;;;;;;;18.30;13.65;;;1.80;73.70;;;;;;5070566;28;20203;-84
2022/03/13 04:58:06;;;;;;;22.73;14.85;;;1.60;80.00;;;;;;5068791;28;20257;-83
2022/03/13 05:00:34;;;;;;;20.27;15.10;;;;;;;;;;5069754;28;20214;-83
2022/03/13 05:03:01;;;;;;;19.15;13.93;;;;;;;;;;5065194;28;20223;-85
2022/03/13 05:05:28;;;;;;;21.70;14.85;;;1.60;58.40;;;;;;5070096;28;20256;-82
2022/03/13 05:07:55;;;;;;;23.52;14.50;;;;;;;;;;5069450;28;20257;-83
2022/03/13 05:10:22;;;;;;;22.27;16.15;;;1.30;80.50;;;;;;5069654;28;20199;-83
2022/03/13 05:12:50;;;;;;;18.65;13.48;;;1.60;81.70;;;;;;5068414;28;20226;-84
2022/03/13 05:15:36;;;;;;;23.70;15.23;;;1.60;81.80;;;;;;5069939;28;20227;-82
2022/03/13 05:18:03;;;;;;;22.55;15.25;;;1.50;60.30;;;;;;5068207;28;20203;-83
2022/03/13 05:20:31;;;;;;;22.58;15.60;;;1.10;82.20;;;;;;5069901;28;20729;-83
2022/03/13 05:22:58;;;;;;;27.10;16.83;;;;;;;;;;5069617;28;20226;-83
2022/03/13 05:25:29;;;;;;;22.23;15.30;;;1.40;72.40;;;;;;5070589;28;20284;-82
2022/03/13 05:27:57;;;;;;;20.80;14.50;;;1.50;81.90;;;;;;5063280;28;20207;-82
2022/03/13 05:30:24;;;;;;;26.27;15.68;;;1.30;80.20;;;;;;5071661;28;20252;-82
2022/03/13 05:32:52;;;;;;;27.60;15.15;;;;;;;;;;5071359;28;20575;-82
2022/03/13 05:35:20;;;;;;;21.10;13.93;;;1.50;59.80;;;;;;5070337;28;20235;-82
2022/03/13 05:37:47;;;;;;;20.00;14.68;;;;;;;;;;5071874;28;20207;-83
2022/03/13 05:40:15;;;;;;;21.95;15.18;;;1.50;82.40;;;;;;5071696;28;20223;-82
2022/03/13 05:42:43;;;;;;;23.23;15.00;;;1.50;82.50;;;;;;5051706;28;20218;-82
2022/03/13 05:45:12;;;;;;;22.83;16.45;;;1.30;83.30;;;;;;5063228;28;20235;-83
2022/03/13 05:47:47;;;;;;;18.90;14.05;;;1.70;82.70;;;;;;5070804;28;20775;-82
2022/03/13 05:50:14;;;;;;;22.75;15.48;;;;;;;;;;5070231;28;20708;-81
2022/03/13 05:52:43;;;;;;;21.15;14.15;;;1.60;60.70;;;;;;5068566;28;20250;-82
2022/03/13 05:55:10;;;;;;;26.42;16.40;;;1.70;84.00;;;;;;5071979;28;20207;-82
2022/03/13 05:57:38;;;;;;;24.23;17.25;;;1.90;83.20;;;;;;5074388;28;20204;-82
2022/03/13 06:00:06;;;;;;;27.25;16.65;;;2.70;83.00;;;;;;5074413;28;20227;-83
2022/03/13 06:02:40;;;;;;;25.17;15.85;;;2.50;73.70;;;;;;5073993;28;20232;-82
2022/03/13 06:05:09;;;;;;;22.60;15.38;;;2.10;79.80;;;;;;5064535;28;20720;-83
2022/03/13 06:07:36;;;;;;;24.58;15.57;;;2.10;82.20;;;;;;5073238;28;20701;-84
2022/03/13 06:10:04;;;;;;;26.15;16.20;;;2.10;83.50;;;;;;5074306;28;20227;-82
2022/03/13 06:12:32;;;;;;;23.33;17.35;;;2.10;62.20;;;;;;5074313;28;20556;-83
2022/03/13 06:14:59;;;;;;;24.63;17.98;;;2.20;63.30;;;;;;5073718;28;20295;-83
2022/03/13 06:17:27;;;;;;;25.77;15.95;;;2.40;62.40;;;;;;5073820;28;20595;-83
2022/03/13 06:19:55;;;;;;;26.00;16.38;;;2.40;84.00;;;;;;5073570;28;20200;-82
2022/03/13 06:22:24;;;;;;;25.15;16.23;;;2.50;84.60;;;;;;5073401;28;20208;-83
2022/03/13 06:24:51;;;;;;;24.73;16.92;;;2.40;84.30;;;;;;5074294;28;20208;-83
2022/03/13 06:27:18;;;;;;;28.35;15.93;;;2.30;79.20;;;;;;5073724;28;20254;-83
2022/03/13 06:29:45;;;;;;;24.88;15.68;;;2.00;82.60;;;;;;5074042;28;20191;-83
2022/03/13 06:32:12;;;;;;;23.88;16.45;;;2.60;63.00;;;;;;5073798;28;20230;-83
2022/03/13 06:34:39;;;;;;;25.52;18.60;;;2.60;64.70;;;;;;5073974;28;20239;-83
2022/03/13 06:37:08;;;;;;;20.30;15.77;;;2.60;76.00;;;;;;5072903;28;20203;-82
2022/03/13 06:39:35;;;;;;;24.48;16.20;;;2.60;83.50;;;;;;5072109;28;20222;-83
2022/03/13 06:42:02;;;;;;;27.67;17.70;;;3.00;83.60;;;;;;5055149;28;20202;-84
2022/03/13 06:44:30;;;;;;;23.67;16.95;;;;;;;;;;5070913;28;20227;-83
2022/03/13 06:46:57;;;;;;;25.08;17.25;;;3.40;76.50;;;;;;5070634;28;20230;-83
2022/03/13 06:49:23;;;;;;;25.70;17.75;;;3.20;84.50;;;;;;5071126;28;20286;-83
2022/03/13 06:51:50;;;;;;;23.42;16.30;;;3.20;84.20;;;;;;5064759;28;20314;-83
2022/03/13 06:54:19;;;;;;;29.13;16.65;;;2.90;64.30;;;;;;5069647;28;20199;-84
2022/03/13 06:56:48;;;;;;;25.63;16.30;;;3.30;83.30;;;;;;5069358;28;20206;-83
2022/03/13 06:59:15;;;;;;;18.02;14.57;;;3.30;81.90;;;;;;5070672;28;20561;-83
2022/03/13 07:01:42;;;;;;;26.50;17.17;;;3.40;83.70;;;;;;5070308;28;20286;-84
2022/03/13 07:04:12;;;;;;;22.23;16.55;;;3.80;85.10;;;;;;5070278;28;20227;-84
2022/03/13 07:06:39;;;;;;;28.88;15.95;;;3.70;75.00;;;;;;5068543;28;20246;-83
2022/03/13 07:09:07;;;;;;;30.52;17.35;;;4.20;83.20;;;;;;5064880;28;20317;-83
2022/03/13 07:11:36;;;;;;;25.90;16.33;;;4.60;83.60;;;;;;5070056;28;20624;-83
2022/03/13 07:14:04;;;;;;;23.90;15.65;;;4.20;72.00;;;;;;5069800;28;20607;-84
2022/03/13 07:16:32;;;;;;;27.15;17.08;;;5.30;72.40;;;;;;5066640;28;20585;-85
2022/03/13 07:18:59;;;;;;;31.02;17.40;;;4.40;58.90;;;;;;5068674;28;20215;-84
2022/03/13 07:21:26;;;;;;;19.95;16.15;;;4.60;58.70;;;;;;5066770;28;20240;-85
2022/03/13 07:23:53;;;;;;;19.75;15.32;;;;;;;;;;5067026;28;20699;-84
2022/03/13 07:26:20;;;;;;;27.20;16.35;;;4.60;57.20;;;;;;5066718;28;20257;-84
2022/03/13 07:28:48;;;;;;;28.27;16.85;;;4.60;58.00;;;;;;5067049;28;20265;-85
2022/03/13 07:31:15;;;;;;;28.45;16.92;;;4.70;57.60;;;;;;5066948;28;20227;-85
2022/03/13 07:33:42;;;;;;;35.20;17.73;;;4.70;58.30;;;;;;5067629;28;20195;-85
2022/03/13 07:36:09;;;;;;;24.20;18.88;;;4.80;57.90;;;;;;5068499;28;20294;-84
2022/03/13 07:38:36;;;;;;;23.85;16.85;;;4.90;57.80;;;;;;5068148;28;20211;-85
2022/03/13 07:41:04;;;;;;;26.45;18.85;;;5.00;57.60;;;;;;5064501;28;20284;-85
2022/03/13 07:43:31;;;;;;;25.08;19.08;;;5.00;57.90;;;;;;5068979;28;20214;-85
2022/03/13 07:46:00;;;;;;;25.75;17.58;;;5.10;79.30;;;;;;5065878;28;20207;-85
2022/03/13 07:48:27;;;;;;;26.90;18.00;;;5.00;58.30;;;;;;5068450;28;20306;-84
2022/03/13 07:50:54;;;;;;;26.25;19.13;;;5.10;58.60;;;;;;5069520;28;20208;-84
2022/03/13 07:53:26;;;;;;;26.60;18.30;;;4.80;76.10;;;;;;5069385;28;20261;-85
2022/03/13 07:55:53;;;;;;;25.65;18.20;;;5.40;58.40;;;;;;5069268;28;20204;-85
2022/03/13 07:58:20;;;;;;;24.23;18.20;;;5.50;58.20;;;;;;5068611;28;20196;-85
2022/03/13 08:00:47;;;;;;;32.63;18.90;;;5.80;57.40;;;;;;5069111;28;20480;-85
2022/03/13 08:03:24;;;;;;;22.77;17.75;;;5.80;57.30;;;;;;5068384;28;20218;-85
2022/03/13 08:05:52;;;;;;;33.30;16.95;;;5.80;57.60;;;;;;5068655;28;20684;-85
2022/03/13 08:08:19;;;;;;;26.48;19.60;;;6.30;77.90;;;;;;5069511;28;20226;-85
2022/03/13 08:10:45;;;;;;;21.85;15.73;;;6.00;57.40;;;;;;5069640;28;20202;-85
2022/03/13 08:13:12;;;;;;;26.13;17.60;;;6.10;57.30;;;;;;5068068;28;20312;-85
2022/03/13 08:15:39;;;;;;;21.20;16.30;;;6.20;56.90;;;;;;5069073;28;20199;-85
2022/03/13 08:18:06;;;;;;;28.48;17.30;;;6.30;56.70;;;;;;5068659;28;20287;-85
2022/03/13 08:20:35;;;;;;;21.90;16.35;;;6.40;56.20;;;;;;5068952;28;20211;-86
2022/03/13 08:23:02;;;;;;;26.83;18.33;;;6.60;56.10;;;;;;5069133;28;20286;-85
2022/03/13 08:25:29;;;;;;;25.02;17.00;;;6.70;55.60;;;;;;5068780;28;20280;-85
2022/03/13 08:27:56;;;;;;;24.50;19.30;;;6.90;62.90;;;;;;5066924;28;20757;-85
2022/03/13 08:30:26;;;;;;;30.48;18.08;;;;;;;;;;5054102;28;20688;-84
2022/03/13 08:32:54;;;;;;;25.63;16.92;;;6.90;63.00;;;;;;5064193;28;20883;-84
2022/03/13 08:35:21;;;;;;;25.27;17.17;;;6.90;54.90;;;;;;5068502;28;20716;-84
2022/03/13 08:37:49;;;;;;;21.80;18.05;;;7.10;54.90;;;;;;5067887;28;20260;-85
2022/03/13 08:40:16;;;;;;;25.63;19.23;;;7.10;55.50;;;;;;5068052;28;20649;-85
2022/03/13 08:42:43;;;;;;;21.35;15.00;;;7.20;55.00;;;;;;5063636;28;20595;-84
2022/03/13 08:45:11;;;;;;;18.75;15.38;;;7.30;54.00;;;;;;5068111;28;20208;-84
2022/03/13 08:47:38;;;;;;;22.85;16.23;;;7.40;53.70;;;;;;5059548;28;20301;-85
2022/03/13 08:50:06;;;;;;;28.40;17.58;;;7.50;53.50;;;;;;5068887;28;20256;-85
2022/03/13 08:52:35;;;;;;;22.20;16.42;;;7.60;68.80;;;;;;5065004;28;20723;-84
2022/03/13 08:55:04;;;;;;;24.15;16.20;;;7.80;53.70;;;;;;5048848;28;20215;-85
2022/03/13 08:57:31;;;;;;;27.63;15.90;;;8.10;53.40;;;;;;5054262;28;20223;-85
2022/03/13 08:59:58;;;;;;;24.45;17.10;;;8.00;65.10;;;;;;5068616;28;20231;-85
2022/03/13 09:02:25;;;;;;;25.25;18.17;;;8.10;53.20;;;;;;5067452;28;20559;-84
2022/03/13 09:04:51;;;;;;;24.95;17.73;;;8.20;53.10;;;;;;5048789;28;20748;-85
2022/03/13 09:07:18;;;;;;;23.95;17.33;;;8.30;52.80;;;;;;5061453;28;20829;-84
2022/03/13 09:09:46;;;;;;;25.83;16.58;;;8.90;65.10;;;;;;5066938;28;20211;-85
2022/03/13 09:12:14;;;;;;;24.27;16.42;;;8.70;52.30;;;;;;5063344;28;20207;-84
2022/03/13 09:14:41;;;;;;;23.90;16.15;;;8.90;51.90;;;;;;5054147;28;20407;-85
2022/03/13 09:17:08;;;;;;;24.95;16.85;;;8.90;51.70;;;;;;5061755;28;20674;-85
2022/03/13 09:19:35;;;;;;;22.08;15.73;;;8.90;52.50;;;;;;5067933;28;20285;-85
2022/03/13 09:22:02;;;;;;;21.45;16.60;;;9.30;64.40;;;;;;5067747;28;20286;-85
2022/03/13 09:24:29;;;;;;;24.40;17.10;;;9.20;51.60;;;;;;5067408;28;20208;-85
2022/03/13 09:26:55;;;;;;;22.95;17.17;;;9.40;51.80;;;;;;5067471;28;20306;-86
2022/03/13 09:29:24;;;;;;;23.55;15.82;;;9.30;52.00;;;;;;5067954;28;20205;-85
2022/03/13 09:31:50;;;;;;;23.02;16.42;;;9.40;66.40;;;;;;5071336;28;20204;-85
2022/03/13 09:34:17;;;;;;;28.95;18.42;;;9.50;51.80;;;;;;5071477;28;20227;-85
2022/03/13 09:36:44;;;;;;;24.50;17.92;;;9.60;52.10;;;;;;5070707;28;20225;-86
2022/03/13 09:39:11;;;;;;;22.20;18.27;;;9.70;51.50;;;;;;5070708;28;20829;-86
2022/03/13 09:41:39;;;;;;;25.03;18.03;;;9.90;51.10;;;;;;5054419;28;20205;-85
2022/03/13 09:44:07;;;;;;;19.83;16.37;;;9.90;51.40;;;;;;5051583;28;20625;-86
2022/03/13 09:46:37;;;;;;;23.97;16.37;;;9.80;51.00;;;;;;5051716;28;20785;-85
2022/03/13 09:49:05;;;;;;;26.13;18.93;;;10.00;50.60;;;;;;5051048;28;20663;-86
2022/03/13 09:51:32;;;;;;;20.07;16.50;;;10.10;50.30;;;;;;5050554;28;20616;-85
2022/03/13 09:54:01;;;;;;;23.87;18.43;;;10.20;50.80;;;;;;5051642;28;20625;-86
2022/03/13 09:56:27;;;;;;;24.50;18.33;;;10.30;50.90;;;;;;5051380;28;20660;-85
2022/03/13 09:58:54;;;;;;;25.70;17.63;;;10.50;50.10;;;;;;5051612;28;20620;-86
2022/03/13 10:01:22;;;;;;;25.57;17.90;;;10.60;49.50;;;;;;5051601;28;20690;-86
2022/03/13 10:03:50;;;;;;;22.30;17.33;;;10.80;49.50;;;;;;5061230;28;20651;-86
2022/03/13 10:06:17;;;;;;;23.70;17.30;;;10.70;49.80;;;;;;5070970;28;20666;-85
2022/03/13 10:08:44;;;;;;;25.90;18.77;;;10.80;49.40;;;;;;5071279;28;20746;-85
2022/03/13 10:11:11;;;;;;;27.07;19.87;;;10.80;49.30;;;;;;5071419;28;20620;-86
2022/03/13 10:13:39;;;;;;;23.00;16.20;;;10.80;48.90;;;;;;5071559;28;20616;-85
2022/03/13 10:16:08;;;;;;;22.77;17.60;;;10.60;48.40;;;;;;5070774;28;21578;-85
2022/03/13 10:18:36;;;;;;;25.53;17.53;;;11.60;60.40;;;;;;5070993;28;21038;-86
2022/03/13 10:21:12;;;;;;;21.37;16.07;;;10.90;49.20;;;;;;5071004;28;20752;-85
2022/03/13 10:23:39;;;;;;;27.00;17.03;;;11.00;48.50;;;;;;5071305;28;20656;-86
2022/03/13 10:26:06;;;;;;;28.93;17.53;;;11.50;61.30;;;;;;5070664;28;20667;-86
2022/03/13 10:28:34;;;;;;;24.67;16.80;;;11.30;49.80;;;;;;5070331;28;20641;-86
2022/03/13 10:31:15;;;;;;;23.70;17.23;;;11.30;48.50;;;;;;5070851;28;20629;-86
2022/03/13 10:33:55;;;;;;;23.50;16.80;;;11.40;48.40;;;;;;5071069;28;20636;-86
2022/03/13 10:36:31;;;;;;;21.30;17.07;;;11.40;48.60;;;;;;5070207;28;20636;-85
2022/03/13 10:39:00;;;;;;;26.17;16.87;;;13.10;49.50;;;;;;5070907;28;20647;-86
2022/03/13 10:41:42;;;;;;;22.70;17.70;;;11.60;48.30;;;;;;5055120;28;20618;-85
2022/03/13 10:44:16;;;;;;;26.53;19.30;;;11.60;48.20;;;;;;5050611;28;21160;-86
2022/03/13 10:46:44;;;;;;;21.67;16.70;;;11.80;48.40;;;;;;5050600;28;20652;-86
2022/03/13 10:49:13;;;;;;;23.93;17.40;;;12.00;48.00;;;;;;5050679;28;20733;-85
2022/03/13 10:51:46;;;;;;;25.07;17.07;;;12.20;47.80;;;;;;5050276;28;21203;-85
2022/03/13 10:54:28;;;;;;;25.60;16.10;;;12.20;47.10;;;;;;5050313;28;20633;-85
2022/03/13 10:57:06;;;;;;;24.63;16.70;;;12.20;47.30;;;;;;5050362;28;20618;-85
2022/03/13 10:59:33;;;;;;;27.10;18.00;;;12.30;47.10;;;;;;5050284;28;21152;-86
2022/03/13 11:02:13;;;;;;;21.13;15.90;;;12.20;46.90;;;;;;5050083;28;21332;-86
2022/03/13 11:04:48;;;;;;;29.00;17.50;;;12.30;46.90;;;;;;5066878;28;21232;-86
2022/03/13 11:07:17;;;;;;;28.97;19.33;;;12.50;45.90;;;;;;5069901;28;20616;-86
2022/03/13 11:09:44;;;;;;;25.10;18.10;;;12.50;45.70;;;;;;5070275;28;20621;-86
2022/03/13 11:12:17;;;;;;;27.40;18.07;;;12.50;46.00;;;;;;5070111;28;20733;-85
2022/03/13 11:14:47;;;;;;;27.80;18.23;;;12.50;46.20;;;;;;5070128;28;20617;-87
2022/03/13 11:17:14;;;;;;;26.23;18.27;;;12.90;51.10;;;;;;5070151;28;20621;-86
2022/03/13 11:19:42;;;;;;;25.80;17.70;;;12.70;46.50;;;;;;5070183;28;20621;-86
2022/03/13 11:22:09;;;;;;;27.10;18.03;;;12.80;46.10;;;;;;5069790;28;20668;-86
2022/03/13 11:24:38;;;;;;;24.27;18.03;;;12.80;45.70;;;;;;5070061;28;21023;-85
2022/03/13 11:27:10;;;;;;;28.77;19.70;;;12.70;46.40;;;;;;5069345;28;20688;-86
2022/03/13 11:29:44;;;;;;;24.10;17.63;;;12.80;46.40;;;;;;5069443;28;20652;-86
2022/03/13 11:32:32;;;;;;;27.27;18.50;;;12.90;45.70;;;;;;5069809;28;20671;-87
2022/03/13 11:35:25;;;;;;;24.83;17.13;;;13.00;45.60;;;;;;5069524;28;20637;-86
2022/03/13 11:37:53;;;;;;;28.50;18.67;;;13.00;45.40;;;;;;5069455;28;20627;-86
2022/03/13 11:40:34;;;;;;;21.80;16.70;;;13.10;45.80;;;;;;5063527;28;20630;-86
2022/03/13 11:43:10;;;;;;;27.17;18.30;;;13.30;45.20;;;;;;5049762;28;20734;-86
2022/03/13 11:45:39;;;;;;;25.73;17.90;;;13.40;45.10;;;;;;5049597;28;20725;-86
2022/03/13 11:48:36;;;;;;;27.90;19.80;;;13.40;44.90;;;;;;5049241;28;20749;-86
2022/03/13 11:51:05;;;;;;;26.50;17.40;;;13.40;45.50;;;;;;5049328;28;21194;-87
2022/03/13 11:53:44;;;;;;;28.37;19.30;;;13.50;44.80;;;;;;5049066;28;20649;-87
2022/03/13 11:56:20;;;;;;;24.73;17.83;;;13.60;44.40;;;;;;5049210;28;20684;-86
2022/03/13 11:58:49;;;;;;;25.63;18.00;;;13.50;44.70;;;;;;5049071;28;20625;-86
2022/03/13 12:01:18;;;;;;;24.40;17.70;;;13.40;45.00;;;;;;5049513;28;20630;-86
2022/03/13 12:04:23;;;;;;;24.53;16.30;;;13.50;45.00;;;;;;5058711;28;20624;-86
2022/03/13 12:06:52;;;;;;;23.17;17.57;;;13.50;45.00;;;;;;5069257;28;20620;-87
2022/03/13 12:09:19;;;;;;;26.40;18.30;;;13.60;44.50;;;;;;5068798;28;20655;-86
2022/03/13 12:11:50;;;;;;;27.17;18.13;;;13.70;44.30;;;;;;5068948;28;20605;-86
2022/03/13 12:14:20;;;;;;;26.30;18.10;;;13.80;43.30;;;;;;5069064;28;20625;-86
2022/03/13 12:17:04;;;;;;;24.90;19.10;;;13.80;43.50;;;;;;5068876;28;20613;-86
2022/03/13 12:19:39;;;;;;;25.97;17.10;;;13.70;52.00;;;;;;5068935;28;21007;-85
2022/03/13 12:22:06;;;;;;;24.77;17.83;;;13.60;50.80;;;;;;5068633;28;21163;-86
2022/03/13 12:24:34;;;;;;;22.87;17.07;;;13.90;43.60;;;;;;5068974;28;20674;-85
2022/03/13 12:27:05;;;;;;;24.90;18.17;;;14.00;43.60;;;;;;5068749;28;20625;-86
2022/03/13 12:29:32;;;;;;;27.50;17.07;;;14.10;54.20;;;;;;5068847;28;21121;-86
2022/03/13 12:32:00;;;;;;;26.97;18.40;;;14.40;50.40;;;;;;5068371;28;20690;-86
2022/03/13 12:34:29;;;;;;;23.67;15.87;;;14.10;42.50;;;;;;5068746;28;21030;-86
2022/03/13 12:37:02;;;;;;;24.67;17.17;;;14.20;42.70;;;;;;5068104;28;20713;-86
2022/03/13 12:39:29;;;;;;;24.87;16.23;;;14.20;42.10;;;;;;5069000;28;20625;-87
2022/03/13 12:41:57;;;;;;;25.27;16.80;;;14.20;42.30;;;;;;5049809;28;20625;-86
2022/03/13 12:44:27;;;;;;;26.03;17.00;;;14.30;42.10;;;;;;5049745;28;20672;-86
2022/03/13 12:46:56;;;;;;;23.37;17.63;;;14.20;41.30;;;;;;5048904;28;20626;-86
2022/03/13 12:49:28;;;;;;;23.57;16.50;;;14.20;41.70;;;;;;5048546;28;20661;-86